Time;durP1;ratioP1;P1;durP2;ratioP2;P2;SDS_P1;SDS_P2;PMS_P1;PMS_P2;Temp;Humidity;BMP_temperature;BMP_pressure;BME280_temperature;BME280_humidity;BME280_pressure;Samples;Min_cycle;Max_cycle;Signal;HPM_P1;HPM_P2
2023/07/04 00:01:11;;;;;;;26.88;15.27;;;14.70;99.90;;;;;;4993748;28;20710;-74
2023/07/04 00:03:43;;;;;;;25.75;14.48;;;14.70;99.90;;;;;;4993905;28;20283;-73
2023/07/04 00:06:17;;;;;;;24.25;13.48;;;14.70;99.90;;;;;;4997133;28;20199;-73
2023/07/04 00:08:50;;;;;;;26.13;13.95;;;14.70;99.90;;;;;;4997802;28;20227;-73
2023/07/04 00:11:23;;;;;;;26.67;13.82;;;14.70;99.90;;;;;;4997648;28;20203;-74
2023/07/04 00:13:54;;;;;;;26.00;13.80;;;14.70;99.90;;;;;;4998005;28;20187;-73
2023/07/04 00:16:25;;;;;;;24.73;14.63;;;14.70;99.90;;;;;;4998192;28;20242;-74
2023/07/04 00:18:56;;;;;;;29.23;15.48;;;14.70;99.90;;;;;;4997741;28;20246;-74
2023/07/04 00:21:28;;;;;;;26.92;14.80;;;14.70;99.90;;;;;;4997669;28;20202;-74
2023/07/04 00:24:01;;;;;;;24.60;13.52;;;14.70;99.90;;;;;;4997449;28;20192;-75
2023/07/04 00:26:33;;;;;;;26.08;14.65;;;14.70;99.90;;;;;;4997606;28;20208;-74
2023/07/04 00:29:04;;;;;;;27.15;14.05;;;14.70;99.90;;;;;;4997500;28;20215;-73
2023/07/04 00:31:35;;;;;;;23.58;13.38;;;14.70;99.90;;;;;;4997521;28;20578;-74
2023/07/04 00:34:06;;;;;;;27.48;14.82;;;14.70;99.90;;;;;;4997444;28;20198;-73
2023/07/04 00:36:37;;;;;;;29.30;14.50;;;14.70;99.90;;;;;;4997459;28;20246;-74
2023/07/04 00:39:11;;;;;;;26.85;13.80;;;14.70;99.90;;;;;;4997195;28;20192;-73
2023/07/04 00:41:43;;;;;;;21.48;13.85;;;14.80;99.90;;;;;;4997575;28;20196;-73
2023/07/04 00:44:24;;;;;;;25.15;13.90;;;14.80;99.90;;;;;;4997177;28;20595;-75
2023/07/04 00:47:06;;;;;;;23.30;13.23;;;14.80;99.90;;;;;;4997367;28;20195;-74
2023/07/04 00:49:42;;;;;;;24.25;14.20;;;14.80;99.90;;;;;;4997209;28;20191;-74
2023/07/04 00:52:16;;;;;;;25.60;13.90;;;14.80;99.90;;;;;;4996866;28;20249;-74
2023/07/04 00:54:52;;;;;;;24.45;13.15;;;14.80;99.90;;;;;;4997307;28;20199;-73
2023/07/04 00:57:25;;;;;;;20.73;12.80;;;14.80;99.90;;;;;;4996928;28;20310;-73
2023/07/04 01:00:00;;;;;;;25.45;13.70;;;14.80;99.90;;;;;;4996867;28;20575;-73
2023/07/04 01:02:34;;;;;;;22.00;12.57;;;14.80;99.90;;;;;;4996464;28;20286;-73
2023/07/04 01:05:06;;;;;;;19.10;11.13;;;14.80;99.90;;;;;;4996889;28;20553;-73
2023/07/04 01:07:42;;;;;;;22.48;13.25;;;14.80;99.90;;;;;;4996581;28;20219;-74
2023/07/04 01:10:19;;;;;;;24.63;12.52;;;14.80;99.90;;;;;;4996854;28;20188;-73
2023/07/04 01:12:50;;;;;;;27.52;14.75;;;14.80;99.90;;;;;;4996854;28;20195;-74
2023/07/04 01:15:23;;;;;;;20.80;12.50;;;14.80;99.90;;;;;;4996592;28;20192;-74
2023/07/04 01:17:55;;;;;;;23.30;13.40;;;14.80;99.90;;;;;;4996548;28;20305;-73
2023/07/04 01:20:26;;;;;;;18.10;11.70;;;14.90;99.90;;;;;;4996599;28;20192;-73
2023/07/04 01:23:02;;;;;;;19.38;11.10;;;14.90;99.90;;;;;;4996444;28;20643;-73
2023/07/04 01:25:43;;;;;;;21.35;12.43;;;14.90;99.90;;;;;;4996463;28;20198;-73
2023/07/04 01:28:17;;;;;;;21.08;12.50;;;14.90;99.90;;;;;;4996296;28;20223;-73
2023/07/04 01:30:49;;;;;;;21.27;12.68;;;15.00;99.90;;;;;;4996400;28;20207;-74
2023/07/04 01:33:24;;;;;;;20.92;13.20;;;15.00;99.90;;;;;;4996326;28;20192;-73
2023/07/04 01:35:56;;;;;;;33.03;18.45;;;15.10;99.90;;;;;;4995979;28;20209;-73
2023/07/04 01:38:30;;;;;;;30.85;17.58;;;15.10;99.90;;;;;;4996296;28;20607;-73
2023/07/04 01:41:01;;;;;;;30.02;17.73;;;15.10;99.90;;;;;;4996248;28;20245;-73
2023/07/04 01:43:35;;;;;;;35.65;19.63;;;15.10;99.90;;;;;;4996137;28;20192;-74
2023/07/04 01:46:06;;;;;;;30.02;17.73;;;15.10;99.90;;;;;;4996346;28;20200;-74
2023/07/04 01:48:37;;;;;;;31.33;17.60;;;15.10;99.90;;;;;;4996062;28;20602;-73
2023/07/04 01:51:08;;;;;;;26.48;16.90;;;15.20;99.90;;;;;;4994238;28;20227;-73
2023/07/04 01:53:39;;;;;;;30.08;16.77;;;15.20;99.90;;;;;;4996012;28;20199;-74
2023/07/04 01:56:10;;;;;;;32.50;19.27;;;15.20;99.90;;;;;;4995935;28;22279;-74
2023/07/04 01:58:43;;;;;;;24.42;15.50;;;15.20;99.90;;;;;;4995794;28;20238;-73
2023/07/04 02:01:14;;;;;;;31.45;17.48;;;15.30;99.90;;;;;;4995776;28;20235;-73
2023/07/04 02:03:46;;;;;;;27.35;16.30;;;15.30;99.90;;;;;;4995772;28;20199;-73
2023/07/04 02:06:18;;;;;;;31.35;18.73;;;15.30;99.90;;;;;;4995783;28;20636;-73
2023/07/04 02:08:49;;;;;;;31.15;17.88;;;15.30;99.90;;;;;;4995244;28;20230;-74
2023/07/04 02:11:20;;;;;;;28.15;16.50;;;15.30;99.90;;;;;;4995692;28;20215;-73
2023/07/04 02:13:53;;;;;;;25.95;14.95;;;15.30;99.90;;;;;;4995789;28;20556;-73
2023/07/04 02:16:24;;;;;;;24.48;14.43;;;15.30;99.90;;;;;;4995625;28;20250;-73
2023/07/04 02:18:55;;;;;;;26.45;14.90;;;15.20;99.90;;;;;;4995567;28;20559;-73
2023/07/04 02:21:27;;;;;;;28.50;15.82;;;15.30;99.90;;;;;;4995795;28;20229;-74
2023/07/04 02:23:58;;;;;;;28.15;14.98;;;15.30;99.90;;;;;;4995876;28;20659;-73
2023/07/04 02:26:29;;;;;;;25.48;14.40;;;15.30;99.90;;;;;;4995224;28;20671;-74
2023/07/04 02:29:02;;;;;;;23.65;13.95;;;15.30;99.90;;;;;;4994365;28;20219;-74
2023/07/04 02:31:34;;;;;;;21.52;14.00;;;15.30;99.90;;;;;;4995238;28;20195;-74
2023/07/04 02:34:05;;;;;;;21.83;14.32;;;15.30;99.90;;;;;;4995214;28;20659;-74
2023/07/04 02:36:36;;;;;;;28.42;16.33;;;15.40;99.90;;;;;;4995239;28;20191;-74
2023/07/04 02:39:08;;;;;;;27.50;15.45;;;15.40;99.90;;;;;;4996429;28;20192;-74
2023/07/04 02:41:39;;;;;;;26.25;15.63;;;15.40;99.90;;;;;;4995074;28;20620;-74
2023/07/04 02:44:12;;;;;;;28.42;16.50;;;15.40;99.90;;;;;;4994927;28;20226;-73
2023/07/04 02:46:43;;;;;;;25.02;16.10;;;15.40;99.90;;;;;;4995250;28;20210;-74
2023/07/04 02:49:14;;;;;;;30.58;16.95;;;15.40;99.90;;;;;;4994689;28;20230;-74
2023/07/04 02:51:48;;;;;;;28.02;16.15;;;15.50;99.90;;;;;;4994940;28;20188;-74
2023/07/04 02:54:20;;;;;;;27.52;16.73;;;15.50;99.90;;;;;;4994846;28;20195;-74
2023/07/04 02:56:51;;;;;;;30.40;17.10;;;15.50;99.90;;;;;;4994632;28;20310;-74
2023/07/04 02:59:24;;;;;;;26.45;16.70;;;15.50;99.90;;;;;;4994607;28;20218;-74
2023/07/04 03:01:55;;;;;;;29.00;16.85;;;15.60;99.90;;;;;;4994621;28;20191;-74
2023/07/04 03:04:26;;;;;;;27.15;16.05;;;15.60;99.90;;;;;;4994482;28;20650;-74
2023/07/04 03:06:57;;;;;;;22.42;14.10;;;15.50;99.90;;;;;;4994663;28;20196;-73
2023/07/04 03:09:28;;;;;;;24.95;15.20;;;15.50;99.90;;;;;;4994734;28;20223;-73
2023/07/04 03:11:59;;;;;;;23.60;15.23;;;15.50;99.90;;;;;;4994467;28;20552;-74
2023/07/04 03:14:32;;;;;;;30.17;17.90;;;15.50;99.90;;;;;;4994436;28;20538;-75
2023/07/04 03:17:04;;;;;;;32.20;18.55;;;15.60;99.90;;;;;;4994208;28;20569;-74
2023/07/04 03:19:35;;;;;;;39.67;21.73;;;15.60;99.90;;;;;;4994401;28;20603;-75
2023/07/04 03:22:06;;;;;;;33.20;19.25;;;15.60;99.90;;;;;;4994235;28;20552;-75
2023/07/04 03:24:38;;;;;;;35.88;20.52;;;15.70;99.90;;;;;;4994243;28;20191;-75
2023/07/04 03:27:09;;;;;;;29.15;17.50;;;15.70;99.90;;;;;;4994341;28;20191;-75
2023/07/04 03:29:42;;;;;;;28.80;18.08;;;15.60;99.90;;;;;;4994646;28;20605;-75
2023/07/04 03:32:13;;;;;;;29.85;17.27;;;15.70;99.90;;;;;;4994035;28;20200;-75
2023/07/04 03:34:44;;;;;;;29.45;18.45;;;15.70;99.90;;;;;;4994117;28;20211;-74
2023/07/04 03:37:15;;;;;;;29.85;17.70;;;15.70;99.90;;;;;;4994755;28;20199;-75
2023/07/04 03:39:46;;;;;;;29.25;17.15;;;15.70;99.90;;;;;;4994632;28;20651;-75
2023/07/04 03:42:17;;;;;;;28.98;17.45;;;15.80;99.90;;;;;;4994175;28;20192;-75
2023/07/04 03:44:50;;;;;;;30.10;18.65;;;15.80;99.90;;;;;;4991920;28;20207;-75
2023/07/04 03:47:21;;;;;;;34.63;18.35;;;15.80;99.90;;;;;;4974423;28;20192;-75
2023/07/04 03:49:53;;;;;;;31.65;19.27;;;15.80;99.90;;;;;;4974443;28;20220;-75
2023/07/04 03:52:24;;;;;;;30.52;18.52;;;15.80;99.90;;;;;;4993421;28;20207;-75
2023/07/04 03:54:55;;;;;;;30.70;18.80;;;15.80;99.90;;;;;;4994301;28;20195;-75
2023/07/04 03:57:26;;;;;;;29.35;17.65;;;15.80;99.90;;;;;;4994663;28;20238;-75
2023/07/04 03:59:59;;;;;;;28.70;18.50;;;15.80;99.90;;;;;;4993680;28;20243;-75
2023/07/04 04:02:30;;;;;;;28.48;17.60;;;15.80;99.90;;;;;;4993584;28;20214;-76
2023/07/04 04:05:01;;;;;;;29.15;17.90;;;15.80;99.90;;;;;;4993846;28;20188;-75
2023/07/04 04:07:32;;;;;;;29.80;18.48;;;15.80;99.90;;;;;;4993821;28;20207;-75
2023/07/04 04:10:04;;;;;;;27.55;17.05;;;15.80;99.90;;;;;;4993700;28;20591;-75
2023/07/04 04:12:35;;;;;;;32.50;19.23;;;15.70;99.90;;;;;;4993766;28;20195;-75
2023/07/04 04:15:09;;;;;;;27.33;16.55;;;15.70;99.90;;;;;;4992417;28;20208;-75
2023/07/04 04:17:40;;;;;;;30.08;18.02;;;15.70;99.90;;;;;;4994534;28;20205;-76
2023/07/04 04:20:12;;;;;;;29.92;18.20;;;15.70;99.90;;;;;;4992756;28;20207;-76
2023/07/04 04:22:45;;;;;;;32.35;19.40;;;15.70;99.90;;;;;;4993045;28;20206;-75
2023/07/04 04:25:16;;;;;;;29.25;18.33;;;15.70;99.90;;;;;;4992430;28;20223;-74
2023/07/04 04:27:48;;;;;;;28.25;17.98;;;15.70;99.90;;;;;;4993643;28;20214;-75
2023/07/04 04:30:21;;;;;;;26.92;17.48;;;15.70;99.90;;;;;;4991836;28;20200;-75
2023/07/04 04:32:52;;;;;;;29.45;16.58;;;15.70;99.90;;;;;;4991745;28;20200;-75
2023/07/04 04:35:25;;;;;;;27.02;15.93;;;15.70;99.90;;;;;;4993540;28;20188;-74
2023/07/04 04:37:56;;;;;;;33.55;20.95;;;15.60;99.90;;;;;;4993456;28;20271;-76
2023/07/04 04:40:28;;;;;;;31.50;18.70;;;15.70;99.90;;;;;;4993576;28;20191;-74
2023/07/04 04:42:59;;;;;;;33.67;18.63;;;15.60;99.90;;;;;;4993342;28;20203;-75
2023/07/04 04:45:32;;;;;;;31.20;18.80;;;15.50;99.90;;;;;;4993392;28;20196;-75
2023/07/04 04:48:06;;;;;;;32.60;19.85;;;15.50;99.90;;;;;;4993518;28;20203;-75
2023/07/04 04:50:43;;;;;;;29.70;20.02;;;15.50;99.90;;;;;;4993667;28;20727;-75
2023/07/04 04:53:15;;;;;;;36.70;23.15;;;15.50;99.90;;;;;;4997193;28;20639;-76
2023/07/04 04:55:46;;;;;;;37.95;22.42;;;15.40;99.90;;;;;;4997604;28;20191;-76
2023/07/04 04:58:17;;;;;;;35.05;22.83;;;15.40;99.90;;;;;;4996979;28;20228;-74
2023/07/04 05:00:51;;;;;;;35.47;21.63;;;15.30;99.90;;;;;;4996677;28;20239;-75
2023/07/04 05:03:22;;;;;;;36.15;22.70;;;15.30;99.90;;;;;;4996792;28;20202;-76
2023/07/04 05:05:53;;;;;;;32.72;20.05;;;15.30;99.90;;;;;;4996832;28;20192;-76
2023/07/04 05:08:24;;;;;;;40.60;24.98;;;15.30;99.90;;;;;;4996934;28;20196;-75
2023/07/04 05:11:04;;;;;;;36.17;23.20;;;15.30;99.90;;;;;;4996725;28;20196;-76
2023/07/04 05:13:35;;;;;;;37.17;22.30;;;15.30;99.90;;;;;;4996455;28;20231;-75
2023/07/04 05:16:11;;;;;;;34.42;19.90;;;15.20;99.90;;;;;;4996543;28;20203;-75
2023/07/04 05:18:43;;;;;;;33.00;19.60;;;15.20;99.90;;;;;;4996638;28;20245;-76
2023/07/04 05:21:15;;;;;;;32.33;19.00;;;15.20;99.90;;;;;;4996612;28;20208;-74
2023/07/04 05:23:48;;;;;;;31.48;18.30;;;15.10;99.90;;;;;;4996546;28;20196;-75
2023/07/04 05:26:21;;;;;;;30.45;18.48;;;15.10;99.90;;;;;;4988405;28;20665;-74
2023/07/04 05:28:53;;;;;;;31.10;19.30;;;15.00;99.90;;;;;;4976703;28;20220;-73
2023/07/04 05:31:27;;;;;;;27.75;17.15;;;15.00;99.90;;;;;;4978386;28;20227;-74
2023/07/04 05:33:59;;;;;;;33.05;17.92;;;15.00;99.90;;;;;;4995601;28;20192;-74
2023/07/04 05:36:32;;;;;;;34.03;17.85;;;15.00;99.90;;;;;;4995541;28;20568;-74
2023/07/04 05:39:06;;;;;;;26.42;16.25;;;15.00;99.90;;;;;;4995038;28;20204;-73
2023/07/04 05:41:38;;;;;;;26.50;16.10;;;14.90;99.90;;;;;;4996565;28;20188;-73
2023/07/04 05:44:11;;;;;;;24.10;14.85;;;14.90;99.90;;;;;;4996131;28;20230;-73
2023/07/04 05:46:44;;;;;;;25.15;15.43;;;14.90;99.90;;;;;;4996243;28;20575;-74
2023/07/04 05:49:15;;;;;;;23.45;14.23;;;14.90;99.90;;;;;;4995763;28;20222;-74
2023/07/04 05:51:46;;;;;;;22.75;13.85;;;14.90;99.90;;;;;;4996012;28;20203;-74
2023/07/04 05:54:17;;;;;;;22.15;13.43;;;14.90;99.90;;;;;;4996168;28;20191;-74
2023/07/04 05:56:53;;;;;;;22.67;13.75;;;14.90;99.90;;;;;;4995619;28;20219;-75
2023/07/04 05:59:24;;;;;;;26.25;15.40;;;14.90;99.90;;;;;;4995986;28;20191;-75
2023/07/04 06:01:58;;;;;;;23.13;13.88;;;14.90;99.90;;;;;;4995882;28;20198;-75
2023/07/04 06:04:29;;;;;;;20.92;13.60;;;14.80;99.90;;;;;;4996140;28;20196;-74
2023/07/04 06:07:02;;;;;;;21.10;12.65;;;14.80;99.90;;;;;;4995602;28;20573;-75
2023/07/04 06:09:33;;;;;;;21.30;13.05;;;14.80;99.90;;;;;;4995741;28;20227;-74
2023/07/04 06:12:04;;;;;;;18.83;12.90;;;14.80;99.90;;;;;;4995262;28;20188;-74
2023/07/04 06:14:37;;;;;;;20.92;13.23;;;14.80;99.90;;;;;;4995853;28;20207;-74
2023/07/04 06:17:10;;;;;;;19.20;11.85;;;14.80;99.90;;;;;;4995728;28;20191;-74
2023/07/04 06:19:41;;;;;;;22.08;12.13;;;14.80;99.90;;;;;;4994146;28;20208;-73
2023/07/04 06:22:12;;;;;;;21.00;13.18;;;14.80;99.90;;;;;;4989428;28;20651;-74
2023/07/04 06:24:46;;;;;;;20.70;12.88;;;14.80;99.90;;;;;;4987387;28;20191;-74
2023/07/04 06:27:17;;;;;;;19.85;12.40;;;14.80;99.90;;;;;;4993992;28;20262;-73
2023/07/04 06:29:53;;;;;;;20.90;13.05;;;14.80;99.90;;;;;;4995560;28;20211;-73
2023/07/04 06:32:27;;;;;;;20.20;12.90;;;14.80;99.90;;;;;;4994665;28;20246;-73
2023/07/04 06:34:58;;;;;;;21.20;12.40;;;14.80;99.90;;;;;;4995458;28;20192;-73
2023/07/04 06:37:29;;;;;;;20.85;13.38;;;14.80;99.90;;;;;;4994221;28;20203;-74
2023/07/04 06:40:01;;;;;;;21.20;12.63;;;14.80;99.90;;;;;;4994432;28;20199;-74
2023/07/04 06:42:34;;;;;;;20.73;13.10;;;14.80;99.90;;;;;;4995060;28;20206;-74
2023/07/04 06:45:05;;;;;;;22.52;12.57;;;14.80;99.90;;;;;;4993961;28;20195;-74
2023/07/04 06:47:38;;;;;;;19.13;12.27;;;14.70;99.90;;;;;;4994120;28;20659;-74
2023/07/04 06:50:11;;;;;;;18.90;12.00;;;14.70;99.90;;;;;;4995321;28;20251;-74
2023/07/04 06:52:42;;;;;;;21.05;12.65;;;14.70;99.90;;;;;;4995003;28;20195;-74
2023/07/04 06:55:13;;;;;;;18.90;11.95;;;14.70;99.90;;;;;;4994803;28;20191;-74
2023/07/04 06:57:44;;;;;;;21.80;13.23;;;14.70;99.90;;;;;;4994784;28;20224;-75
2023/07/04 07:00:16;;;;;;;21.48;12.05;;;14.70;99.90;;;;;;4995163;28;20746;-75
2023/07/04 07:02:52;;;;;;;20.83;12.60;;;14.70;99.90;;;;;;4990283;28;20203;-74
2023/07/04 07:05:23;;;;;;;21.25;11.98;;;14.70;99.90;;;;;;4990590;28;20249;-75
2023/07/04 07:07:54;;;;;;;22.05;12.70;;;14.70;99.90;;;;;;4994703;28;20192;-75
2023/07/04 07:10:25;;;;;;;20.60;12.02;;;14.60;99.90;;;;;;4993267;28;20215;-75
2023/07/04 07:12:56;;;;;;;20.92;12.27;;;14.60;99.90;;;;;;4995160;28;20640;-75
2023/07/04 07:15:28;;;;;;;21.60;11.82;;;14.60;99.90;;;;;;4993153;28;20199;-74
2023/07/04 07:18:01;;;;;;;19.08;11.63;;;14.60;99.90;;;;;;4993660;28;20564;-74
2023/07/04 07:20:32;;;;;;;19.92;11.38;;;14.60;99.90;;;;;;4990663;28;20210;-74
2023/07/04 07:23:03;;;;;;;20.95;11.77;;;14.60;99.90;;;;;;4979561;28;20687;-74
2023/07/04 07:25:34;;;;;;;21.10;12.05;;;14.60;99.90;;;;;;4985962;28;20192;-74
2023/07/04 07:28:05;;;;;;;21.05;11.35;;;14.60;99.90;;;;;;4992141;28;20202;-73
2023/07/04 07:30:36;;;;;;;20.98;12.32;;;14.60;99.90;;;;;;4991916;28;20222;-73
2023/07/04 07:33:09;;;;;;;21.08;12.13;;;14.50;99.90;;;;;;4992697;28;20676;-73
2023/07/04 07:35:40;;;;;;;21.00;11.82;;;14.50;99.90;;;;;;4991367;28;20199;-71
2023/07/04 07:38:12;;;;;;;22.00;11.98;;;14.50;99.90;;;;;;4987634;28;20195;-73
2023/07/04 07:40:43;;;;;;;18.73;11.45;;;14.50;99.90;;;;;;4994299;28;20198;-72
2023/07/04 07:43:16;;;;;;;19.80;12.27;;;14.50;99.90;;;;;;4994008;28;20197;-72
2023/07/04 07:45:47;;;;;;;19.15;11.88;;;14.50;99.90;;;;;;4994227;28;20199;-72
2023/07/04 07:48:20;;;;;;;21.85;12.75;;;14.50;99.90;;;;;;4994141;28;20192;-71
2023/07/04 07:50:51;;;;;;;21.10;12.57;;;14.50;99.90;;;;;;4994080;28;20215;-72
2023/07/04 07:53:22;;;;;;;19.65;12.35;;;14.50;99.90;;;;;;4993042;28;20199;-71
2023/07/04 07:55:53;;;;;;;20.40;12.70;;;14.50;99.90;;;;;;4990880;28;20545;-72
2023/07/04 07:58:24;;;;;;;22.83;12.85;;;14.50;99.90;;;;;;4995878;28;20218;-73
2023/07/04 08:00:56;;;;;;;22.00;13.50;;;14.50;99.90;;;;;;4996711;28;20687;-72
2023/07/04 08:03:29;;;;;;;28.20;17.67;;;14.40;99.90;;;;;;4993209;28;20206;-72
2023/07/04 08:06:00;;;;;;;25.92;16.15;;;14.40;99.90;;;;;;4986003;28;20200;-72
2023/07/04 08:08:32;;;;;;;26.35;15.65;;;14.40;99.90;;;;;;4987087;28;20199;-74
2023/07/04 08:11:03;;;;;;;21.63;14.43;;;14.40;99.90;;;;;;4992334;28;20227;-74
2023/07/04 08:13:34;;;;;;;22.52;14.15;;;14.40;99.90;;;;;;4983623;28;20222;-74
2023/07/04 08:16:05;;;;;;;20.85;12.90;;;14.40;99.90;;;;;;4992661;28;20214;-74
2023/07/04 08:18:39;;;;;;;22.10;13.00;;;14.40;99.90;;;;;;4991290;28;20196;-74
2023/07/04 08:21:11;;;;;;;21.38;13.05;;;14.40;99.90;;;;;;4987724;28;20194;-74
2023/07/04 08:23:42;;;;;;;23.33;13.50;;;14.40;99.90;;;;;;4991317;28;20195;-74
2023/07/04 08:26:19;;;;;;;22.42;14.13;;;14.40;99.90;;;;;;4992137;28;20192;-74
2023/07/04 08:28:50;;;;;;;21.33;12.82;;;14.40;99.90;;;;;;4995435;28;20203;-74
2023/07/04 08:31:21;;;;;;;23.17;12.77;;;14.40;99.90;;;;;;4994198;28;20614;-74
2023/07/04 08:33:54;;;;;;;21.98;12.27;;;14.40;99.90;;;;;;4993053;28;20200;-74
2023/07/04 08:36:25;;;;;;;22.88;12.45;;;14.40;99.90;;;;;;4997105;28;20536;-74
2023/07/04 08:38:56;;;;;;;17.65;11.52;;;14.40;99.90;;;;;;4993033;28;20215;-74
2023/07/04 08:41:52;;;;;;;20.48;12.30;;;14.40;99.90;;;;;;4997002;28;20313;-73
2023/07/04 08:44:25;;;;;;;20.33;11.93;;;14.40;99.90;;;;;;4990961;28;20205;-73
2023/07/04 08:46:58;;;;;;;20.25;12.20;;;14.40;99.90;;;;;;4992515;28;20214;-74
2023/07/04 08:49:51;;;;;;;20.30;12.18;;;14.40;99.90;;;;;;4993826;28;20548;-74
2023/07/04 08:52:25;;;;;;;20.65;13.48;;;14.40;99.90;;;;;;4994638;28;20206;-73
2023/07/04 08:54:58;;;;;;;20.63;13.07;;;14.30;99.90;;;;;;4996160;28;20199;-74
2023/07/04 08:57:39;;;;;;;18.80;12.77;;;14.30;99.90;;;;;;4988164;28;20302;-73
2023/07/04 09:00:14;;;;;;;21.00;13.30;;;14.30;99.90;;;;;;4986660;28;20267;-73
2023/07/04 09:03:19;;;;;;;20.98;12.77;;;14.30;99.90;;;;;;4992593;28;20209;-74
2023/07/04 09:06:02;;;;;;;20.65;12.15;;;14.30;99.90;;;;;;4992057;28;20203;-74
2023/07/04 09:08:47;;;;;;;20.98;12.75;;;14.30;99.90;;;;;;4996880;28;20544;-73
2023/07/04 09:11:20;;;;;;;23.85;13.45;;;14.30;99.90;;;;;;4992553;28;20286;-73
2023/07/04 09:13:57;;;;;;;17.83;12.02;;;14.30;99.90;;;;;;4992005;28;20199;-73
2023/07/04 09:16:35;;;;;;;22.13;12.93;;;14.30;99.90;;;;;;4994290;28;20199;-73
2023/07/04 09:19:08;;;;;;;19.27;12.27;;;14.30;99.90;;;;;;4992457;28;20299;-73
2023/07/04 09:21:42;;;;;;;17.73;12.00;;;14.30;99.90;;;;;;4992897;28;20202;-73
2023/07/04 09:24:14;;;;;;;20.30;12.35;;;14.30;99.90;;;;;;4993676;28;20199;-74
2023/07/04 09:26:47;;;;;;;23.52;12.85;;;14.30;99.90;;;;;;4995730;28;20204;-73
2023/07/04 09:29:22;;;;;;;19.90;12.63;;;14.30;99.90;;;;;;4988391;28;20192;-74
2023/07/04 09:31:57;;;;;;;19.50;12.13;;;14.30;99.90;;;;;;4994532;28;20219;-73
2023/07/04 09:34:33;;;;;;;18.58;12.10;;;14.30;99.90;;;;;;4988614;28;20199;-73
2023/07/04 09:37:13;;;;;;;18.63;11.82;;;14.30;99.90;;;;;;4984668;28;20207;-73
2023/07/04 09:39:52;;;;;;;18.40;11.73;;;14.30;99.90;;;;;;4996013;28;20198;-73
2023/07/04 09:42:25;;;;;;;17.30;11.55;;;14.30;99.90;;;;;;4994403;28;20294;-73
2023/07/04 09:44:57;;;;;;;18.65;12.18;;;14.30;99.90;;;;;;4994546;28;20206;-73
2023/07/04 09:47:30;;;;;;;19.10;11.60;;;14.30;99.90;;;;;;4994344;28;20567;-74
2023/07/04 09:50:13;;;;;;;20.00;12.30;;;14.30;99.90;;;;;;4990775;28;20215;-73
2023/07/04 09:52:46;;;;;;;19.77;12.57;;;14.30;99.90;;;;;;4993017;28;20659;-74
2023/07/04 09:55:27;;;;;;;18.58;11.85;;;14.30;99.90;;;;;;4995920;28;20203;-73
2023/07/04 09:58:18;;;;;;;18.90;11.95;;;14.30;99.90;;;;;;4994525;28;20227;-74
2023/07/04 10:01:06;;;;;;;18.73;11.55;;;14.30;99.90;;;;;;4993864;28;20240;-74
2023/07/04 10:03:38;;;;;;;18.65;11.57;;;14.30;99.90;;;;;;4993949;28;20214;-73
2023/07/04 10:06:10;;;;;;;18.98;11.68;;;14.30;99.90;;;;;;4995614;28;20192;-73
2023/07/04 10:08:55;;;;;;;19.63;12.52;;;14.30;99.90;;;;;;4992568;28;21213;-73
2023/07/04 10:11:34;;;;;;;20.33;13.40;;;14.30;99.90;;;;;;4991569;28;20691;-73
2023/07/04 10:14:08;;;;;;;19.25;12.02;;;14.30;99.90;;;;;;4984791;28;20191;-73
2023/07/04 10:16:46;;;;;;;19.27;11.90;;;14.30;99.90;;;;;;4989197;28;20326;-74
2023/07/04 10:19:19;;;;;;;20.17;13.25;;;14.30;99.90;;;;;;4990570;28;20196;-73
2023/07/04 10:21:51;;;;;;;19.73;12.60;;;14.30;99.90;;;;;;4985203;28;20663;-74
2023/07/04 10:24:26;;;;;;;21.20;13.70;;;14.30;99.90;;;;;;4992734;28;20207;-74
2023/07/04 10:27:02;;;;;;;22.13;13.27;;;14.30;99.90;;;;;;4979690;28;20199;-74
2023/07/04 10:29:35;;;;;;;20.58;13.60;;;14.30;99.90;;;;;;4993499;28;20222;-74
2023/07/04 10:32:13;;;;;;;19.27;13.15;;;14.30;99.90;;;;;;4994776;28;20582;-74
2023/07/04 10:34:46;;;;;;;21.73;13.73;;;14.30;99.90;;;;;;4995536;28;20191;-74
2023/07/04 10:37:24;;;;;;;20.50;12.82;;;14.30;99.90;;;;;;4995271;28;20670;-74
2023/07/04 10:40:02;;;;;;;18.63;12.77;;;14.30;99.90;;;;;;4995012;28;20211;-74
2023/07/04 10:42:39;;;;;;;22.55;13.85;;;14.30;99.90;;;;;;4993945;28;20291;-74
2023/07/04 10:45:15;;;;;;;22.35;13.95;;;14.30;99.90;;;;;;4995779;28;20650;-74
2023/07/04 10:47:46;;;;;;;22.90;14.18;;;14.30;99.90;;;;;;4991912;28;20242;-73
2023/07/04 10:50:22;;;;;;;20.23;13.60;;;14.30;99.90;;;;;;4993733;28;20682;-74
2023/07/04 10:52:54;;;;;;;18.73;12.88;;;14.30;99.90;;;;;;4995227;28;20191;-74
2023/07/04 10:55:32;;;;;;;18.75;12.63;;;14.30;99.90;;;;;;4994863;28;20566;-74
2023/07/04 10:58:08;;;;;;;19.08;11.95;;;14.30;99.90;;;;;;4994910;28;20230;-74
2023/07/04 11:00:42;;;;;;;18.83;11.90;;;14.30;99.90;;;;;;4993356;28;20721;-74
2023/07/04 11:03:19;;;;;;;18.35;11.07;;;14.30;99.90;;;;;;4994807;28;20250;-74
2023/07/04 11:05:53;;;;;;;17.17;11.55;;;14.30;99.90;;;;;;4994681;28;20640;-74
2023/07/04 11:08:25;;;;;;;18.75;12.27;;;14.30;99.90;;;;;;4993857;28;20207;-74
2023/07/04 11:11:03;;;;;;;17.77;12.00;;;14.30;99.90;;;;;;4994450;28;20219;-74
2023/07/04 11:13:36;;;;;;;20.25;12.38;;;14.30;99.90;;;;;;4994816;28;20199;-74
2023/07/04 11:16:09;;;;;;;18.08;11.73;;;14.30;99.90;;;;;;4993555;28;20211;-74
2023/07/04 11:18:46;;;;;;;21.00;13.40;;;14.30;99.90;;;;;;4994448;28;20188;-74
2023/07/04 11:21:19;;;;;;;16.63;11.25;;;14.30;99.90;;;;;;4994291;28;20638;-73
2023/07/04 11:23:53;;;;;;;17.80;11.25;;;14.30;99.90;;;;;;4994500;28;20199;-73
2023/07/04 11:26:51;;;;;;;16.35;10.38;;;14.30;99.90;;;;;;4991659;28;20204;-73
2023/07/04 11:29:24;;;;;;;15.65;11.32;;;14.30;99.90;;;;;;4994335;28;20601;-74
2023/07/04 11:32:15;;;;;;;15.25;10.75;;;14.30;99.90;;;;;;4993636;28;20222;-74
2023/07/04 11:34:49;;;;;;;16.52;10.75;;;14.30;99.90;;;;;;4992506;28;20195;-73
2023/07/04 11:37:32;;;;;;;15.57;10.90;;;14.30;99.90;;;;;;4991780;28;20290;-74
2023/07/04 11:40:13;;;;;;;16.20;11.20;;;14.20;99.90;;;;;;4991352;28;20242;-74
2023/07/04 11:42:50;;;;;;;17.58;11.57;;;14.30;99.90;;;;;;4992741;28;20663;-73
2023/07/04 11:45:23;;;;;;;16.35;11.40;;;14.30;99.90;;;;;;4993747;28;20198;-74
2023/07/04 11:47:58;;;;;;;15.63;10.65;;;14.30;99.90;;;;;;4993112;28;20266;-74
2023/07/04 11:50:36;;;;;;;15.55;10.88;;;14.30;99.90;;;;;;4981529;28;20282;-73
2023/07/04 11:53:14;;;;;;;15.77;10.65;;;14.30;99.90;;;;;;4993907;28;20199;-74
2023/07/04 11:55:46;;;;;;;16.67;10.43;;;14.30;99.90;;;;;;4994035;28;20250;-74
2023/07/04 11:58:27;;;;;;;16.45;10.57;;;14.30;99.90;;;;;;4992593;28;20227;-74
2023/07/04 12:01:12;;;;;;;15.63;10.13;;;14.30;99.90;;;;;;4993259;28;20257;-73
2023/07/04 12:03:57;;;;;;;15.35;10.52;;;14.30;99.90;;;;;;4993716;28;20227;-74
2023/07/04 12:06:56;;;;;;;14.35;9.80;;;14.30;99.90;;;;;;4992906;28;20234;-74
2023/07/04 12:09:45;;;;;;;19.63;11.85;;;14.30;99.90;;;;;;4993754;28;20191;-74
2023/07/04 12:12:27;;;;;;;17.80;11.70;;;14.30;99.90;;;;;;4992689;28;20226;-73
2023/07/04 12:15:08;;;;;;;17.40;11.52;;;14.20;99.90;;;;;;4993526;28;20270;-74
2023/07/04 12:17:41;;;;;;;17.08;11.73;;;14.20;99.90;;;;;;4993689;28;20199;-74
2023/07/04 12:20:14;;;;;;;17.30;11.70;;;14.20;99.90;;;;;;4993544;28;20279;-73
2023/07/04 12:22:52;;;;;;;15.88;10.75;;;14.20;99.90;;;;;;4992733;28;20282;-74
2023/07/04 12:25:25;;;;;;;16.27;11.25;;;14.30;99.90;;;;;;4993452;28;20210;-73
2023/07/04 12:28:01;;;;;;;16.15;10.60;;;14.30;99.90;;;;;;4992448;28;20211;-73
2023/07/04 12:30:35;;;;;;;14.43;10.40;;;14.20;99.90;;;;;;4992619;28;20246;-73
2023/07/04 12:33:06;;;;;;;15.02;10.30;;;14.20;99.90;;;;;;4993184;28;20549;-73
2023/07/04 12:35:39;;;;;;;16.73;10.75;;;14.20;99.90;;;;;;4993693;28;20279;-74
2023/07/04 12:38:11;;;;;;;13.10;9.43;;;14.20;99.90;;;;;;4993610;28;20260;-74
2023/07/04 12:40:42;;;;;;;13.80;10.10;;;14.30;99.90;;;;;;4992664;28;20200;-74
2023/07/04 12:43:15;;;;;;;13.52;9.48;;;14.20;99.90;;;;;;4993390;28;20192;-74
2023/07/04 12:45:48;;;;;;;15.20;9.95;;;14.20;99.90;;;;;;4993499;28;20652;-74
2023/07/04 12:48:19;;;;;;;16.00;11.05;;;14.30;99.90;;;;;;4992383;28;20192;-74
2023/07/04 12:50:53;;;;;;;18.10;11.63;;;14.20;99.90;;;;;;4989038;28;20223;-74
2023/07/04 12:53:27;;;;;;;13.00;9.57;;;14.20;99.90;;;;;;4983725;28;20202;-74
2023/07/04 12:55:58;;;;;;;14.27;9.68;;;14.20;99.90;;;;;;4980839;28;20219;-74
2023/07/04 12:58:31;;;;;;;14.10;9.95;;;14.20;99.90;;;;;;4984845;28;20204;-74
2023/07/04 13:01:08;;;;;;;16.67;10.98;;;14.10;99.90;;;;;;4992353;28;20247;-74